createdAt,value
2018-10-07T01:45:40.805Z,35.38
2018-10-07T01:48:09.210Z,39.20
2018-10-07T01:50:37.384Z,42.78
2018-10-07T01:53:06.008Z,48.65
2018-10-07T01:55:34.735Z,51.55
2018-10-07T01:58:02.991Z,50.03
2018-10-07T02:00:31.238Z,47.73
2018-10-07T02:02:59.417Z,46.60
2018-10-07T02:05:27.603Z,52.93
2018-10-07T02:07:55.768Z,56.15
2018-10-07T02:10:24.018Z,56.50
2018-10-07T02:12:52.168Z,60.43
2018-10-07T02:15:20.412Z,55.48
2018-10-07T02:17:48.564Z,56.45
2018-10-07T02:20:16.717Z,54.30
2018-10-07T02:22:44.894Z,57.50
2018-10-07T02:25:13.711Z,53.68
2018-10-07T02:27:41.860Z,61.20
2018-10-07T02:30:10.028Z,59.88
2018-10-07T02:32:38.364Z,60.83
2018-10-07T02:35:06.549Z,60.90
2018-10-07T02:37:34.880Z,57.45
2018-10-07T02:40:03.139Z,55.52
2018-10-07T02:42:31.304Z,60.08
2018-10-07T02:44:59.436Z,63.85
2018-10-07T02:47:27.655Z,60.78
2018-10-07T02:49:55.924Z,66.30
2018-10-07T02:52:29.531Z,61.35
2018-10-07T02:54:57.706Z,59.38
2018-10-07T02:57:26.656Z,55.67
2018-10-07T02:59:55.006Z,56.48
2018-10-07T03:02:23.177Z,58.78
2018-10-07T03:04:51.393Z,56.60
2018-10-07T03:07:19.787Z,53.20
2018-10-07T03:09:47.916Z,54.45
2018-10-07T03:12:16.185Z,50.48
2018-10-07T03:14:44.519Z,50.73
2018-10-07T03:17:12.672Z,53.00
2018-10-07T03:19:40.913Z,54.27
2018-10-07T03:22:09.207Z,53.78
2018-10-07T03:24:37.351Z,54.18
2018-10-07T03:27:05.516Z,52.85
2018-10-07T03:29:33.860Z,48.35
2018-10-07T03:32:01.994Z,46.98
2018-10-07T03:34:30.152Z,47.58
2018-10-07T03:36:58.338Z,45.08
2018-10-07T03:39:26.993Z,47.67
2018-10-07T03:41:55.131Z,48.35
2018-10-07T03:44:23.281Z,48.92
2018-10-07T03:46:51.532Z,52.43
2018-10-07T03:49:20.118Z,51.13
2018-10-07T03:51:48.300Z,46.92
2018-10-07T03:54:16.659Z,49.23
2018-10-07T03:56:44.835Z,46.40
2018-10-07T03:59:13.016Z,36.23
2018-10-07T04:01:41.165Z,32.55
2018-10-07T04:04:09.319Z,31.02
2018-10-07T04:06:37.483Z,30.02
2018-10-07T04:09:06.848Z,26.77
2018-10-07T04:11:35.143Z,24.87
2018-10-07T04:14:03.289Z,26.68
2018-10-07T04:16:31.433Z,28.98
2018-10-07T04:18:59.723Z,28.75
2018-10-07T04:21:27.947Z,23.35
2018-10-07T04:23:56.084Z,21.87
2018-10-07T04:26:24.227Z,22.73
2018-10-07T04:28:52.383Z,19.75
2018-10-07T04:31:21.136Z,21.93
2018-10-07T04:33:49.280Z,21.10
2018-10-07T04:36:17.439Z,18.90
2018-10-07T04:38:45.703Z,21.42
2018-10-07T04:41:14.007Z,22.13
2018-10-07T04:43:42.215Z,21.23
2018-10-07T04:46:10.618Z,22.98
2018-10-07T04:48:38.787Z,20.77
2018-10-07T04:51:07.147Z,17.67
2018-10-07T04:53:35.311Z,15.48
2018-10-07T04:56:03.510Z,19.32
2018-10-07T04:58:31.695Z,18.23
2018-10-07T05:01:00.144Z,18.90
2018-10-07T05:03:28.498Z,18.05
2018-10-07T05:05:56.643Z,15.78
2018-10-07T05:08:24.834Z,15.38
2018-10-07T05:10:54.262Z,16.02
2018-10-07T05:13:26.636Z,17.87
2018-10-07T05:15:56.856Z,14.45
2018-10-07T05:18:25.248Z,14.05
2018-10-07T05:20:54.165Z,15.73
2018-10-07T05:23:22.507Z,13.60
2018-10-07T05:25:50.880Z,14.38
2018-10-07T05:28:19.059Z,12.53
2018-10-07T05:30:47.207Z,13.33
2018-10-07T05:33:15.418Z,11.60
2018-10-07T05:35:43.553Z,11.03
2018-10-07T05:38:11.760Z,9.53
2018-10-07T05:40:39.978Z,10.25
2018-10-07T05:43:08.124Z,10.35
2018-10-07T05:45:36.292Z,9.60
2018-10-07T05:48:04.556Z,10.53
2018-10-07T05:50:32.847Z,9.27
2018-10-07T05:53:01.024Z,7.95
2018-10-07T05:55:29.232Z,10.20
2018-10-07T05:57:58.283Z,8.88
2018-10-07T06:00:27.134Z,7.93
2018-10-07T06:02:59.331Z,8.33
2018-10-07T06:05:28.128Z,7.12
2018-10-07T06:07:56.432Z,8.55
2018-10-07T06:10:24.651Z,5.93
2018-10-07T06:12:52.969Z,7.60
2018-10-07T06:15:24.778Z,5.45
2018-10-07T06:17:53.115Z,5.92
2018-10-07T06:20:21.569Z,4.95
2018-10-07T06:22:49.759Z,5.17
2018-10-07T06:25:17.911Z,4.80
2018-10-07T06:27:46.061Z,4.65
2018-10-07T06:30:14.199Z,4.20
2018-10-07T06:32:42.460Z,3.83
2018-10-07T06:35:10.736Z,5.35
2018-10-07T06:37:39.291Z,4.15
2018-10-07T06:40:07.545Z,5.20
2018-10-07T06:42:35.724Z,4.33
2018-10-07T06:45:03.895Z,4.95
2018-10-07T06:47:32.145Z,5.15
2018-10-07T06:50:00.283Z,4.17
2018-10-07T06:52:28.408Z,4.60
2018-10-07T06:54:56.549Z,4.08
2018-10-07T06:57:24.662Z,4.63
2018-10-07T06:59:53.457Z,3.83
2018-10-07T07:02:21.594Z,4.73
2018-10-07T07:04:49.952Z,4.20
2018-10-07T07:07:18.112Z,2.65
2018-10-07T07:09:46.416Z,3.05
2018-10-07T07:12:14.580Z,2.98
2018-10-07T07:14:42.722Z,3.10
2018-10-07T07:17:10.841Z,3.55
2018-10-07T07:19:39.533Z,3.20
2018-10-07T07:22:07.804Z,3.30
2018-10-07T07:24:36.017Z,4.40
2018-10-07T07:27:04.157Z,2.50
2018-10-07T07:29:32.424Z,4.28
2018-10-07T07:32:00.704Z,4.53
2018-10-07T07:34:28.892Z,2.77
2018-10-07T07:36:57.027Z,3.67
2018-10-07T07:39:25.728Z,3.10
2018-10-07T07:41:53.831Z,3.07
2018-10-07T07:44:22.016Z,2.37
2018-10-07T07:46:50.088Z,3.25
2018-10-07T07:49:18.317Z,3.43
2018-10-07T07:51:46.379Z,2.30
2018-10-07T07:54:14.479Z,1.87
2018-10-07T07:56:43.368Z,3.37
2018-10-07T07:59:12.455Z,2.52
2018-10-07T08:01:40.546Z,2.20
2018-10-07T08:04:08.680Z,1.60
2018-10-07T08:06:36.869Z,1.50
2018-10-07T08:09:06.304Z,1.60
2018-10-07T08:11:34.671Z,1.62
2018-10-07T08:14:02.968Z,2.55
2018-10-07T08:16:31.469Z,1.65
2018-10-07T08:18:59.685Z,3.05
2018-10-07T08:21:27.860Z,1.20
2018-10-07T08:23:55.997Z,2.08
2018-10-07T08:26:24.084Z,1.45
2018-10-07T08:28:52.296Z,1.37
2018-10-07T08:31:20.668Z,2.42
2018-10-07T08:33:48.868Z,1.72
2018-10-07T08:36:17.239Z,1.25
2018-10-07T08:38:45.331Z,1.42
2018-10-07T08:43:04.352Z,1.37
2018-10-07T08:45:32.923Z,1.27
2018-10-07T08:48:01.165Z,1.30
2018-10-07T08:50:29.348Z,1.20
2018-10-07T08:52:57.584Z,2.55
2018-10-07T08:55:25.813Z,3.20
2018-10-07T08:57:53.929Z,1.02
2018-10-07T09:00:22.714Z,0.80
2018-10-07T09:02:50.787Z,1.42
2018-10-07T09:05:18.979Z,0.90
2018-10-07T09:07:47.225Z,0.88
2018-10-07T09:10:15.301Z,0.60
2018-10-07T09:12:43.583Z,1.47
2018-10-07T09:15:11.859Z,0.80
2018-10-07T09:17:39.936Z,1.02
2018-10-07T09:20:08.145Z,1.10
2018-10-07T09:22:36.731Z,2.35
2018-10-07T09:25:04.933Z,1.42
2018-10-07T09:27:33.219Z,1.65
2018-10-07T09:30:01.292Z,0.55
2018-10-07T09:32:29.652Z,1.98
2018-10-07T09:34:57.748Z,0.40
2018-10-07T09:37:25.968Z,0.85
2018-10-07T09:39:54.706Z,1.20
2018-10-07T09:42:22.852Z,0.60
2018-10-07T09:44:51.028Z,0.80
2018-10-07T09:47:19.262Z,2.02
2018-10-07T09:49:47.308Z,1.02
2018-10-07T09:52:15.666Z,0.50
2018-10-07T09:54:45.033Z,0.88
2018-10-07T09:57:13.147Z,1.22
2018-10-07T09:59:41.284Z,0.70
2018-10-07T10:02:09.649Z,3.40
2018-10-07T10:04:37.779Z,0.75
2018-10-07T10:07:06.156Z,0.78
2018-10-07T10:09:34.196Z,0.80
2018-10-07T10:12:02.338Z,0.60
2018-10-07T10:14:30.452Z,0.85
2018-10-07T10:17:01.240Z,1.77
2018-10-07T10:19:35.675Z,2.58
2018-10-07T10:22:07.675Z,2.33
2018-10-07T10:24:41.281Z,1.15
2018-10-07T10:27:10.214Z,1.35
2018-10-07T10:29:44.415Z,1.10
2018-10-07T10:32:24.859Z,0.90
2018-10-07T10:36:01.240Z,0.85
2018-10-07T10:39:33.158Z,1.90
2018-10-07T10:42:08.385Z,1.40
2018-10-07T10:44:41.081Z,1.42
2018-10-07T10:47:23.739Z,0.85
2018-10-07T10:50:32.081Z,1.42
2018-10-07T10:53:11.039Z,1.27
2018-10-07T10:55:47.309Z,1.40
2018-10-07T10:58:18.606Z,0.45
2018-10-07T11:00:50.740Z,1.07
2018-10-07T11:03:24.172Z,0.90
2018-10-07T11:05:56.330Z,1.62
2018-10-07T11:09:29.364Z,0.85
2018-10-07T11:12:02.154Z,1.27
2018-10-07T11:14:49.135Z,2.33
2018-10-07T11:19:29.384Z,1.87
2018-10-07T11:22:05.632Z,0.98
2018-10-07T11:24:49.529Z,1.02
2018-10-07T11:27:34.631Z,1.37
2018-10-07T11:32:16.752Z,1.55
2018-10-07T11:34:50.557Z,1.22
2018-10-07T11:38:22.995Z,1.50
2018-10-07T11:41:25.080Z,1.27
2018-10-07T11:44:57.061Z,2.02
2018-10-07T11:49:33.705Z,0.98
2018-10-07T11:52:07.719Z,1.67
2018-10-07T11:54:41.561Z,1.67
2018-10-07T11:57:10.226Z,1.82
2018-10-07T11:59:38.304Z,1.57
2018-10-07T12:02:06.563Z,1.65
2018-10-07T12:04:34.675Z,1.30
2018-10-07T12:07:02.972Z,2.15
2018-10-07T12:09:31.256Z,3.02
2018-10-07T12:11:59.361Z,1.67
2018-10-07T12:14:27.903Z,2.15
2018-10-07T12:16:56.105Z,1.22
2018-10-07T12:19:24.272Z,0.95
2018-10-07T12:21:52.481Z,1.20
2018-10-07T12:24:20.701Z,1.90
2018-10-07T12:26:49.092Z,2.15
2018-10-07T12:29:17.281Z,0.88
2018-10-07T12:31:45.436Z,1.55
2018-10-07T12:34:13.602Z,1.27
2018-10-07T12:36:42.137Z,1.70
2018-10-07T12:39:10.741Z,2.22
2018-10-07T12:41:38.832Z,1.00
2018-10-07T12:44:07.611Z,0.95
2018-10-07T12:46:35.699Z,1.07
2018-10-07T12:49:04.051Z,1.60
2018-10-07T12:51:32.151Z,0.93
2018-10-07T12:54:00.366Z,0.93
2018-10-07T12:56:29.065Z,1.70
2018-10-07T12:58:57.145Z,2.02
2018-10-07T13:01:25.452Z,2.45
2018-10-07T13:03:53.632Z,3.02
2018-10-07T13:06:21.796Z,1.40
2018-10-07T13:08:49.960Z,2.08
2018-10-07T13:11:18.055Z,1.87
2018-10-07T13:13:46.225Z,1.27
2018-10-07T13:16:14.529Z,1.00
2018-10-07T13:18:42.644Z,1.00
2018-10-07T13:21:10.737Z,1.25
2018-10-07T13:23:38.824Z,2.27
2018-10-07T13:26:06.911Z,0.80
2018-10-07T13:28:35.130Z,2.02
2018-10-07T13:31:03.240Z,2.37
2018-10-07T13:33:31.493Z,2.70
2018-10-07T13:35:59.667Z,1.77
2018-10-07T13:38:27.951Z,0.95
2018-10-07T13:40:56.040Z,0.78
2018-10-07T13:43:24.784Z,1.05
2018-10-07T13:45:52.990Z,0.60
2018-10-07T13:48:21.376Z,2.02
2018-10-07T13:50:49.577Z,1.27
2018-10-07T13:53:18.655Z,1.37
2018-10-07T13:55:46.797Z,0.55
2018-10-07T13:58:15.096Z,1.98
2018-10-07T14:00:43.189Z,1.22
2018-10-07T14:03:11.475Z,1.82
2018-10-07T14:05:39.652Z,1.32
2018-10-07T14:08:07.835Z,2.30
2018-10-07T14:10:35.988Z,1.67
2018-10-07T14:13:04.148Z,1.90
2018-10-07T14:15:32.245Z,2.10
2018-10-07T14:18:00.511Z,1.82
2018-10-07T14:20:28.691Z,1.95
2018-10-07T14:22:56.768Z,2.22
2018-10-07T14:25:24.883Z,0.90
2018-10-07T14:27:53.076Z,1.72
2018-10-07T14:30:21.171Z,1.27
2018-10-07T14:32:49.383Z,1.20
2018-10-07T14:35:17.616Z,3.42
2018-10-07T14:37:45.980Z,1.62
2018-10-07T14:40:14.072Z,2.30
2018-10-07T14:42:42.248Z,1.40
2018-10-07T14:45:10.472Z,1.05
2018-10-07T14:47:38.600Z,2.55
2018-10-07T14:50:06.728Z,2.67
2018-10-07T14:52:34.987Z,2.08
2018-10-07T14:55:03.210Z,2.37
2018-10-07T14:57:31.547Z,2.12
2018-10-07T15:00:00.260Z,2.60
2018-10-07T15:02:28.524Z,2.05
2018-10-07T15:04:56.772Z,2.20
2018-10-07T15:07:24.970Z,1.62
2018-10-07T15:09:53.171Z,2.55
2018-10-07T15:12:21.384Z,2.27
2018-10-07T15:14:49.735Z,2.95
2018-10-07T15:17:17.829Z,2.08
2018-10-07T15:19:46.035Z,2.45
2018-10-07T15:22:14.255Z,2.87
2018-10-07T15:24:42.839Z,2.30
2018-10-07T15:27:10.980Z,2.25
2018-10-07T15:29:39.251Z,1.65
2018-10-07T15:32:07.372Z,1.92
2018-10-07T15:34:35.651Z,3.37
2018-10-07T15:37:03.786Z,3.00
2018-10-07T15:39:31.954Z,2.40
2018-10-07T15:42:00.694Z,1.90
2018-10-07T15:44:28.800Z,2.77
2018-10-07T15:46:56.964Z,4.33
2018-10-07T15:49:25.223Z,3.27
2018-10-07T15:51:53.405Z,3.12
2018-10-07T15:54:21.654Z,2.95
2018-10-07T15:56:49.819Z,2.92
2018-10-07T15:59:18.004Z,2.20
2018-10-07T16:01:46.077Z,2.45
2018-10-07T16:04:14.278Z,4.60
2018-10-07T16:06:42.536Z,2.77
2018-10-07T16:09:11.189Z,2.22
2018-10-07T16:11:39.311Z,2.33
2018-10-07T16:14:07.700Z,4.22
2018-10-07T16:16:35.789Z,3.47
2018-10-07T16:19:04.132Z,2.70
2018-10-07T16:21:32.373Z,3.90
2018-10-07T16:24:00.636Z,3.10
2018-10-07T16:26:28.803Z,4.78
2018-10-07T16:28:56.934Z,3.77
2018-10-07T16:31:25.302Z,2.02
2018-10-07T16:33:53.562Z,3.67
2018-10-07T16:36:21.769Z,4.03
2018-10-07T16:38:49.900Z,3.75
2018-10-07T16:41:18.740Z,3.15
2018-10-07T16:43:46.816Z,4.70
2018-10-07T16:46:14.954Z,4.35
2018-10-07T16:48:43.179Z,3.22
2018-10-07T16:51:11.277Z,6.03
2018-10-07T16:53:39.467Z,6.33
2018-10-07T16:56:07.956Z,4.85
2018-10-07T16:58:36.065Z,3.35
2018-10-07T17:01:04.424Z,4.72
2018-10-07T17:03:32.656Z,4.30
2018-10-07T17:06:01.381Z,4.05
2018-10-07T17:08:30.190Z,4.55
2018-10-07T17:10:58.360Z,8.28
2018-10-07T17:13:26.826Z,6.08
2018-10-07T17:15:54.933Z,4.78
2018-10-07T17:18:23.100Z,5.00
2018-10-07T17:20:51.274Z,4.83
2018-10-07T17:23:19.365Z,4.70
2018-10-07T17:25:47.795Z,4.47
2018-10-07T17:28:15.904Z,4.47
2018-10-07T17:30:43.992Z,6.47
2018-10-07T17:33:12.144Z,5.85
2018-10-07T17:35:40.444Z,5.28
2018-10-07T17:38:08.768Z,4.08
2018-10-07T17:40:36.893Z,6.28
2018-10-07T17:43:05.074Z,6.50
2018-10-07T17:45:33.238Z,5.80
2018-10-07T17:48:01.357Z,7.12
2018-10-07T17:50:29.496Z,4.35
2018-10-07T17:52:58.058Z,5.37
2018-10-07T17:55:26.342Z,5.80
2018-10-07T17:57:55.308Z,7.92
2018-10-07T18:00:23.731Z,9.15
2018-10-07T18:02:52.738Z,12.23
2018-10-07T18:05:20.866Z,14.05
2018-10-07T18:07:49.050Z,13.15
2018-10-07T18:10:17.202Z,14.68
2018-10-07T18:12:45.381Z,12.80
2018-10-07T18:15:13.558Z,10.28
2018-10-07T18:17:42.155Z,7.72
2018-10-07T18:20:10.838Z,6.78
2018-10-07T18:22:39.063Z,6.25
2018-10-07T18:25:07.228Z,6.42
2018-10-07T18:27:36.088Z,4.28
2018-10-07T18:30:04.264Z,4.62
2018-10-07T18:32:32.485Z,6.10
2018-10-07T18:35:01.309Z,9.28
2018-10-07T18:37:29.408Z,6.78
2018-10-07T18:39:57.782Z,8.15
2018-10-07T18:42:26.050Z,6.87
2018-10-07T18:44:55.016Z,8.60
2018-10-07T18:47:23.103Z,13.03
2018-10-07T18:49:51.212Z,11.20
2018-10-07T18:52:19.351Z,11.22
2018-10-07T18:54:47.649Z,11.25
2018-10-07T18:57:15.768Z,9.43
2018-10-07T18:59:44.055Z,7.37
2018-10-07T19:02:12.308Z,9.13
2018-10-07T19:04:46.092Z,11.83
2018-10-07T19:07:14.466Z,17.03
2018-10-07T19:09:42.697Z,14.13
2018-10-07T19:12:10.868Z,10.55
2018-10-07T19:14:39.016Z,6.70
2018-10-07T19:17:07.521Z,6.80
2018-10-07T19:19:35.617Z,7.33
2018-10-07T19:22:03.875Z,5.78
2018-10-07T19:24:31.979Z,5.55
2018-10-07T19:27:00.155Z,5.70
2018-10-07T19:29:28.859Z,7.30
2018-10-07T19:31:56.969Z,8.43
2018-10-07T19:34:25.296Z,8.30
2018-10-07T19:36:53.573Z,6.27
2018-10-07T19:39:21.602Z,6.90
2018-10-07T19:41:49.818Z,5.67
2018-10-07T19:44:18.116Z,5.00
2018-10-07T19:46:46.939Z,5.53
2018-10-07T19:49:15.060Z,7.83
2018-10-07T19:51:43.245Z,6.87
2018-10-07T19:54:11.389Z,13.60
2018-10-07T19:56:39.541Z,8.07
2018-10-07T19:59:07.774Z,7.00
2018-10-07T20:01:36.124Z,8.47
2018-10-07T20:04:04.492Z,6.30
2018-10-07T20:06:32.715Z,9.35
2018-10-07T20:09:00.912Z,5.90
2018-10-07T20:11:29.230Z,6.45
2018-10-07T20:13:57.434Z,8.40
2018-10-07T20:16:25.524Z,6.07
2018-10-07T20:18:53.789Z,5.83
2018-10-07T20:21:22.038Z,7.83
2018-10-07T20:23:51.356Z,5.13
2018-10-07T20:26:19.495Z,4.57
2018-10-07T20:28:47.871Z,6.00
2018-10-07T20:31:16.032Z,4.83
2018-10-07T20:33:44.460Z,7.13
2018-10-07T20:36:12.645Z,6.30
2018-10-07T20:38:40.885Z,5.55
2018-10-07T20:41:09.181Z,5.73
2018-10-07T20:43:37.268Z,4.83
2018-10-07T20:46:05.444Z,4.10
2018-10-07T20:48:33.877Z,4.83
2018-10-07T20:51:01.985Z,5.87
2018-10-07T20:53:30.090Z,4.37
2018-10-07T20:55:58.344Z,4.07
2018-10-07T20:58:26.572Z,4.87
2018-10-07T21:00:54.668Z,4.62
2018-10-07T21:03:22.847Z,6.13
2018-10-07T21:05:51.054Z,4.77
2018-10-07T21:08:19.883Z,5.90
2018-10-07T21:10:47.973Z,7.23
2018-10-07T21:13:16.174Z,6.17
2018-10-07T21:15:44.348Z,4.23
2018-10-07T21:18:13.032Z,5.50
2018-10-07T21:20:41.368Z,5.53
2018-10-07T21:23:09.467Z,4.80
2018-10-07T21:25:38.293Z,4.60
2018-10-07T21:28:06.524Z,3.47
2018-10-07T21:30:35.104Z,5.03
2018-10-07T21:33:03.327Z,6.53
2018-10-07T21:35:31.475Z,6.67
2018-10-07T21:37:59.647Z,4.80
2018-10-07T21:40:27.987Z,3.80
2018-10-07T21:42:56.104Z,4.60
2018-10-07T21:45:24.343Z,4.37
2018-10-07T21:47:52.441Z,4.33
2018-10-07T21:50:20.799Z,7.67
2018-10-07T21:52:49.435Z,5.30
2018-10-07T21:55:18.489Z,5.80
2018-10-07T21:57:46.615Z,5.70
2018-10-07T22:00:15.069Z,7.03
2018-10-07T22:02:43.242Z,3.83
2018-10-07T22:05:11.327Z,5.53
2018-10-07T22:07:39.660Z,3.40
2018-10-07T22:10:07.816Z,5.10
2018-10-07T22:12:36.203Z,5.70
2018-10-07T22:15:04.456Z,4.47
2018-10-07T22:17:34.182Z,4.13
2018-10-07T22:20:02.695Z,3.13
2018-10-07T22:22:31.140Z,5.93
2018-10-07T22:24:59.291Z,4.43
2018-10-07T22:27:27.600Z,2.83
2018-10-07T22:29:55.692Z,6.10
2018-10-07T22:32:24.060Z,6.60
2018-10-07T22:34:52.159Z,6.50
2018-10-07T22:37:20.800Z,6.03
2018-10-07T22:39:48.935Z,4.33
2018-10-07T22:42:17.553Z,5.43
2018-10-07T22:44:45.623Z,4.83
2018-10-07T22:47:13.733Z,6.13
2018-10-07T22:49:41.807Z,6.53
2018-10-07T22:52:10.000Z,7.20
2018-10-07T22:54:38.220Z,4.67
2018-10-07T22:57:06.425Z,6.23
2018-10-07T22:59:34.577Z,7.07
2018-10-07T23:02:03.291Z,8.47
2018-10-07T23:04:31.589Z,6.07
2018-10-07T23:06:59.871Z,8.33
2018-10-07T23:09:28.855Z,7.13
2018-10-07T23:11:56.984Z,8.87
2018-10-07T23:14:25.127Z,4.80
2018-10-07T23:16:53.392Z,7.13
2018-10-07T23:19:21.744Z,8.10
2018-10-07T23:21:49.868Z,7.30
2018-10-07T23:24:17.959Z,6.30
2018-10-07T23:26:46.357Z,6.00
2018-10-07T23:29:14.533Z,5.13
2018-10-07T23:31:42.621Z,3.97
2018-10-07T23:34:10.728Z,6.37
2018-10-07T23:36:39.404Z,4.57
2018-10-07T23:39:08.963Z,4.73
2018-10-07T23:41:37.837Z,8.13
2018-10-07T23:44:06.364Z,4.60
2018-10-07T23:46:34.549Z,4.77
2018-10-07T23:49:02.731Z,4.40
2018-10-07T23:51:30.991Z,3.90
2018-10-07T23:53:59.184Z,4.50
2018-10-07T23:56:27.363Z,5.27
2018-10-07T23:58:55.528Z,6.57
